Spanish Fort, Alabama
Current Conditions -  °F | °C
As of 12:53 AM on Wednesday 22 Oct 2014 (Local Time) from KBFM Reporting Station
Clear Clear  
Wind Chill: 54°   Ceiling: Unl
Heat Index: 54°   Visibility: 9mi
Dew Point: 54°   Wind: 3mph
Humidity: 100%   Direction: 290°WNW
Pressure: 30.04"   Gusts: NA
Location:  30.68°N, 87.88°W
Report Text: KBFM 220553Z AUTO 29003KT 9SM CLR 12/12 A3004 RMK AO2 SLP171 T01220122 10189 20122 402720106 56002
Loading
Personal Weather Stations






























Interactive Weather Map
Tropical Storm Tracking
New forecast layout! Learn more

10-Day Weather Forecast

Advertisements
Track Severe Weather on mobile